createdAt,value
2023-02-15T00:00:35.436Z,50.922619
2023-02-15T00:01:35.481Z,50.922619
2023-02-15T04:55:50.437Z,50.875381
2023-02-15T04:56:50.429Z,50.875423
2023-02-15T04:57:50.428Z,50.875507
2023-02-15T04:58:50.400Z,50.875378
2023-02-15T04:59:50.366Z,50.875446
2023-02-15T05:00:50.395Z,50.875496
2023-02-15T05:01:50.376Z,50.875427
2023-02-15T05:02:50.363Z,50.875427
2023-02-15T05:03:50.365Z,50.875443
2023-02-15T05:04:50.316Z,50.875519
2023-02-15T05:05:50.312Z,50.875523
2023-02-15T05:06:50.294Z,50.875305
2023-02-15T05:07:50.308Z,50.875317
2023-02-15T05:08:50.281Z,50.875446
2023-02-15T05:09:50.280Z,50.875401
2023-02-15T05:10:50.291Z,50.875469
2023-02-15T05:11:50.254Z,50.875385
2023-02-15T05:12:50.266Z,50.875313
2023-02-15T05:13:50.220Z,50.875443
2023-02-15T05:14:50.220Z,50.875507
2023-02-15T05:15:50.217Z,50.875496
2023-02-15T05:16:50.281Z,50.875404
2023-02-15T05:17:50.201Z,50.875381
2023-02-15T05:18:50.202Z,50.875435
2023-02-15T05:19:50.162Z,50.875317
2023-02-15T05:20:50.167Z,50.875183
2023-02-15T05:21:50.155Z,50.875202
2023-02-15T05:22:50.151Z,50.875496
2023-02-15T05:23:50.111Z,50.875366
2023-02-15T05:24:50.151Z,50.875362
2023-02-15T05:25:50.170Z,50.875343
2023-02-15T05:26:50.155Z,50.875324
2023-02-15T05:27:50.123Z,50.875340
2023-02-15T05:28:50.107Z,50.875332
2023-02-15T05:29:50.147Z,50.875328
2023-02-15T05:30:50.234Z,50.875343
2023-02-15T05:31:50.304Z,50.875305
2023-02-15T05:32:50.129Z,50.875282
2023-02-15T05:33:50.056Z,50.875607
2023-02-15T05:34:50.056Z,50.875431
2023-02-15T05:35:50.026Z,50.875267
2023-02-15T05:36:50.027Z,50.875275
2023-02-15T05:37:50.015Z,50.875420
2023-02-15T05:38:50.034Z,50.875095
2023-02-15T05:39:50.002Z,50.875072
2023-02-15T05:40:50.291Z,50.875381
2023-02-15T05:41:50.957Z,50.875637
2023-02-15T05:42:49.967Z,50.875500
2023-02-15T05:43:49.949Z,50.875389
2023-02-15T05:44:49.943Z,50.875473
2023-02-15T05:45:49.962Z,50.876778
2023-02-15T05:46:49.930Z,50.876072
2023-02-15T05:47:49.938Z,50.875416
2023-02-15T05:48:49.918Z,50.875191
2023-02-15T05:49:49.904Z,50.875431
2023-02-15T05:50:49.907Z,50.875275
2023-02-15T05:51:49.866Z,50.875416
2023-02-15T05:52:52.089Z,50.875389
2023-02-15T05:53:49.871Z,50.875324
2023-02-15T05:54:49.847Z,50.875450
2023-02-15T05:55:49.839Z,50.875507
2023-02-15T05:56:49.815Z,50.875633
2023-02-15T05:57:49.794Z,50.875580
2023-02-15T05:58:49.910Z,50.875423
2023-02-15T05:59:49.819Z,50.875290
2023-02-15T06:00:49.836Z,50.875427
2023-02-15T06:01:49.761Z,50.875561
2023-02-15T06:02:49.829Z,50.875927
2023-02-15T06:03:49.788Z,50.875542
2023-02-15T06:04:49.722Z,50.875511
2023-02-15T06:05:49.759Z,50.875374
2023-02-15T06:06:49.704Z,50.875473
2023-02-15T06:07:49.703Z,50.875584
2023-02-15T06:08:50.330Z,50.875229
2023-02-15T06:09:49.746Z,50.875103
2023-02-15T06:10:51.422Z,50.875599
2023-02-15T06:11:49.631Z,50.875694
2023-02-15T06:12:49.720Z,50.875427
2023-02-15T06:13:49.640Z,50.875443
2023-02-15T06:14:49.624Z,50.875240
2023-02-15T06:15:49.686Z,50.875229
2023-02-15T06:16:49.618Z,50.875416
2023-02-15T06:17:49.632Z,50.875450
2023-02-15T06:18:49.653Z,50.875301
2023-02-15T06:19:49.595Z,50.875210
2023-02-15T06:20:49.621Z,50.875301
2023-02-15T06:21:49.562Z,50.875378
2023-02-15T06:22:49.574Z,50.875511
2023-02-15T06:23:49.607Z,50.875397
2023-02-15T06:24:49.650Z,50.875355
2023-02-15T06:25:49.576Z,50.875263
2023-02-15T06:26:49.541Z,50.875210
2023-02-15T06:27:49.569Z,50.875301
2023-02-15T06:28:49.548Z,50.875648
2023-02-15T06:29:49.619Z,50.875305
2023-02-15T06:30:49.568Z,50.875221
2023-02-15T06:31:49.529Z,50.875080
2023-02-15T06:32:49.455Z,50.875114
2023-02-15T06:33:49.438Z,50.876396
2023-02-15T06:34:49.485Z,50.885422
2023-02-15T06:35:49.413Z,50.900169
2023-02-15T06:36:49.423Z,50.915802
2023-02-15T06:37:49.647Z,50.915802
2023-02-15T06:38:49.403Z,50.874691
2023-02-15T06:39:49.369Z,50.875427
2023-02-15T06:40:49.360Z,50.875534
2023-02-15T06:41:49.353Z,50.875664
2023-02-15T06:42:49.344Z,50.875683
2023-02-15T06:43:49.356Z,50.875233
2023-02-15T06:44:49.374Z,50.874828
2023-02-15T06:45:49.330Z,50.875366
2023-02-15T06:46:49.400Z,50.875156
2023-02-15T06:47:49.338Z,50.875374
2023-02-15T06:48:49.342Z,50.875336
2023-02-15T06:49:49.363Z,50.875397
2023-02-15T06:50:49.393Z,50.875385
2023-02-15T06:51:49.328Z,50.875263
2023-02-15T06:52:49.329Z,50.875298
2023-02-15T06:53:49.321Z,50.875256
2023-02-15T06:54:49.340Z,50.875286
2023-02-15T06:55:49.274Z,50.875206
2023-02-15T06:56:49.225Z,50.874710
2023-02-15T06:57:50.947Z,50.874851
2023-02-15T06:58:50.234Z,50.875488
2023-02-15T06:59:49.216Z,50.875694
2023-02-15T07:00:49.209Z,50.874649
2023-02-15T07:01:49.240Z,50.875168
2023-02-15T07:02:49.168Z,50.875294
2023-02-15T07:03:49.193Z,50.874950
2023-02-15T07:04:49.162Z,50.874870
2023-02-15T07:05:49.137Z,50.874977
2023-02-15T07:06:49.116Z,50.875126
2023-02-15T07:07:49.119Z,50.875084
2023-02-15T07:08:49.129Z,50.875172
2023-02-15T07:09:49.063Z,50.875126
2023-02-15T07:10:49.098Z,50.875137
2023-02-15T07:11:49.065Z,50.875225
2023-02-15T07:12:49.053Z,50.875145
2023-02-15T07:13:49.038Z,50.875256
2023-02-15T07:14:49.030Z,50.875244
2023-02-15T07:15:49.105Z,50.875374
2023-02-15T07:16:49.007Z,50.875202
2023-02-15T07:17:50.091Z,50.875240
2023-02-15T07:18:49.026Z,50.875336
2023-02-15T07:19:48.968Z,50.875454
2023-02-15T07:20:49.005Z,50.875393
2023-02-15T07:21:48.952Z,50.875378
2023-02-15T07:22:49.029Z,50.875217
2023-02-15T07:23:48.931Z,50.875099
2023-02-15T07:24:48.942Z,50.875084
2023-02-15T07:25:48.937Z,50.875122
2023-02-15T07:26:48.965Z,50.875122
2023-02-15T07:27:48.935Z,50.875275
2023-02-15T07:28:48.942Z,50.875351
2023-02-15T07:29:48.891Z,50.875278
2023-02-15T07:30:48.964Z,50.875320
2023-02-15T07:31:48.949Z,50.875317
2023-02-15T07:32:48.915Z,50.875290
2023-02-15T07:33:48.918Z,50.875324
2023-02-15T07:34:48.897Z,50.875343
2023-02-15T07:35:48.897Z,50.875366
2023-02-15T07:36:48.910Z,50.875454
2023-02-15T07:37:48.855Z,50.875374
2023-02-15T07:38:48.844Z,50.875343
2023-02-15T07:39:48.884Z,50.875366
2023-02-15T07:40:48.809Z,50.875366
2023-02-15T07:41:48.798Z,50.875362
2023-02-15T07:42:48.807Z,50.875298
2023-02-15T07:43:48.834Z,50.875435
2023-02-15T07:44:48.842Z,50.875290
2023-02-15T07:45:48.808Z,50.874874
2023-02-15T07:46:48.853Z,50.875320
2023-02-15T07:47:48.773Z,50.875340
2023-02-15T07:48:48.748Z,50.875481
2023-02-15T07:49:48.703Z,50.875313
2023-02-15T07:50:48.749Z,50.875439
2023-02-15T07:51:48.701Z,50.875580
2023-02-15T07:52:48.740Z,50.875584
2023-02-15T07:53:48.763Z,50.875214
2023-02-15T07:54:48.693Z,50.875256
2023-02-15T07:55:48.648Z,50.875408
2023-02-15T07:56:48.671Z,50.875755
2023-02-15T07:57:48.746Z,50.875626
2023-02-15T07:58:48.674Z,50.875648
2023-02-15T07:59:48.654Z,50.875443
2023-02-15T08:00:48.701Z,50.875683
2023-02-15T08:01:48.667Z,50.875607
2023-02-15T08:02:48.670Z,50.875546
2023-02-15T08:03:48.771Z,50.875362
2023-02-15T08:04:48.698Z,50.875664
2023-02-15T08:05:48.653Z,50.875664
2023-02-15T08:06:48.540Z,50.875664
2023-02-15T08:07:48.568Z,50.875664
2023-02-15T08:08:48.584Z,50.875664
2023-02-15T08:09:48.521Z,50.875664
2023-02-15T08:10:48.558Z,50.875664
2023-02-15T08:11:48.566Z,50.875664
2023-02-15T08:12:48.528Z,50.875664
2023-02-15T08:13:48.485Z,50.875664
2023-02-15T08:14:49.536Z,50.875664
2023-02-15T08:15:48.462Z,50.875664
2023-02-15T08:16:48.490Z,50.875664
2023-02-15T08:17:48.459Z,50.875664
2023-02-15T08:18:48.452Z,50.875664
2023-02-15T08:19:48.440Z,50.875664
2023-02-15T08:20:48.455Z,50.875664
2023-02-15T08:21:48.421Z,50.875664
2023-02-15T08:22:48.452Z,50.875664
2023-02-15T08:23:48.430Z,50.875664
2023-02-15T08:24:48.413Z,50.875664
2023-02-15T08:25:48.375Z,50.875664
2023-02-15T08:26:48.470Z,50.875664
2023-02-15T08:27:48.381Z,50.875664
2023-02-15T08:28:48.343Z,50.875664
2023-02-15T08:29:48.391Z,50.875664
2023-02-15T08:30:48.416Z,50.875664
2023-02-15T08:31:48.408Z,50.875664
2023-02-15T08:32:48.321Z,50.875664
2023-02-15T08:33:48.261Z,50.875664
2023-02-15T08:34:48.273Z,50.875664
2023-02-15T08:35:48.273Z,50.875664
2023-02-15T08:36:48.256Z,50.875664
2023-02-15T08:37:48.392Z,50.875854
2023-02-15T08:38:48.255Z,50.875874
2023-02-15T08:39:48.231Z,50.875717
2023-02-15T08:40:48.210Z,50.875717
2023-02-15T08:41:48.406Z,50.875717
2023-02-15T08:42:48.193Z,50.875717
2023-02-15T08:43:48.255Z,50.875717
2023-02-15T08:44:50.311Z,50.875717
2023-02-15T08:45:49.197Z,50.875717
2023-02-15T08:46:48.230Z,50.875717
2023-02-15T08:47:48.178Z,50.875717
2023-02-15T08:48:48.186Z,50.875717
2023-02-15T08:49:48.169Z,50.875717
2023-02-15T08:50:48.128Z,50.875717
2023-02-15T08:51:48.195Z,50.875717
2023-02-15T08:52:48.106Z,50.875717
2023-02-15T08:53:48.156Z,50.875717
2023-02-15T08:54:49.108Z,50.875717
2023-02-15T08:55:48.088Z,50.875717
2023-02-15T08:56:48.135Z,50.875717
2023-02-15T08:57:48.128Z,50.875717
2023-02-15T08:58:48.123Z,50.875717
2023-02-15T08:59:48.069Z,50.875717
2023-02-15T09:00:48.110Z,50.875717
2023-02-15T09:01:48.026Z,50.875717
2023-02-15T09:02:48.050Z,50.875717
2023-02-15T09:03:48.081Z,50.875717
2023-02-15T09:04:48.028Z,50.773926
2023-02-15T09:05:48.991Z,50.772896
2023-02-15T09:06:49.084Z,50.772896
2023-02-15T09:07:48.972Z,50.772541
2023-02-15T09:08:48.055Z,50.772533
2023-02-15T09:09:48.010Z,50.774300
2023-02-15T09:10:47.933Z,50.774689
2023-02-15T09:11:47.926Z,50.774689
2023-02-15T09:12:47.954Z,50.774540
2023-02-15T09:13:47.925Z,50.774540
2023-02-15T09:14:47.897Z,50.774540
2023-02-15T09:15:48.017Z,50.774540
2023-02-15T09:16:47.959Z,50.774540
2023-02-15T09:17:48.970Z,50.774540
2023-02-15T09:18:47.935Z,50.774540
2023-02-15T09:19:47.983Z,50.774540
2023-02-15T09:20:47.890Z,50.774540
2023-02-15T09:21:47.988Z,50.774540
2023-02-15T09:22:47.865Z,50.774540
2023-02-15T09:23:47.801Z,50.774540
2023-02-15T09:24:47.844Z,50.774540
2023-02-15T09:25:47.902Z,50.774540
2023-02-15T09:26:47.811Z,50.774540
2023-02-15T09:27:47.801Z,50.875332
2023-02-15T09:28:47.759Z,50.875278
2023-02-15T09:29:47.812Z,50.875267
2023-02-15T09:30:47.794Z,50.875267
2023-02-15T09:31:47.720Z,50.875198
2023-02-15T09:32:47.672Z,50.875328
2023-02-15T09:33:47.642Z,50.875206
2023-02-15T09:34:47.667Z,50.875183
2023-02-15T09:35:47.628Z,50.875755
2023-02-15T09:36:47.869Z,50.876003
2023-02-15T09:37:47.744Z,50.875721
2023-02-15T09:38:47.624Z,50.875298
2023-02-15T09:39:49.123Z,50.875603
2023-02-15T09:40:48.642Z,50.876198
2023-02-15T09:41:47.626Z,50.875725
2023-02-15T09:42:47.672Z,50.875580
2023-02-15T09:43:47.632Z,50.875092
2023-02-15T09:44:47.599Z,50.875092
2023-02-15T09:45:47.631Z,50.875092
2023-02-15T09:46:47.591Z,50.874447
2023-02-15T09:47:47.603Z,50.874588
2023-02-15T09:48:47.521Z,50.875004
2023-02-15T09:49:47.540Z,50.875225
2023-02-15T09:50:47.508Z,50.875500
2023-02-15T09:51:47.459Z,50.875462
2023-02-15T09:52:47.642Z,50.876308
2023-02-15T09:53:47.481Z,50.876827
2023-02-15T09:54:47.478Z,50.876923
2023-02-15T09:55:47.472Z,50.876740
2023-02-15T09:56:47.413Z,50.876549
2023-02-15T09:57:47.448Z,50.876591
2023-02-15T09:58:47.529Z,50.876503
2023-02-15T09:59:47.456Z,50.878044
2023-02-15T10:00:47.419Z,50.879688
2023-02-15T10:01:47.627Z,50.879688
2023-02-15T10:02:47.677Z,50.879688
2023-02-15T10:03:47.435Z,50.879688
2023-02-15T10:04:47.535Z,50.879688
2023-02-15T10:05:47.426Z,50.879688
2023-02-15T10:06:47.422Z,50.879688
2023-02-15T10:07:47.407Z,50.879688
2023-02-15T10:08:47.347Z,50.879688
2023-02-15T10:09:47.362Z,50.879688
2023-02-15T10:10:47.393Z,50.879688
2023-02-15T10:11:47.353Z,50.879688
2023-02-15T10:12:47.553Z,50.879688
2023-02-15T10:13:47.442Z,50.879688
2023-02-15T10:14:47.372Z,50.875076
2023-02-15T10:15:47.454Z,50.875290
2023-02-15T10:16:49.360Z,50.875290
2023-02-15T10:17:47.290Z,50.875027
2023-02-15T10:18:47.470Z,50.875027
2023-02-15T10:19:47.351Z,50.875404
2023-02-15T10:20:47.338Z,50.876114
2023-02-15T10:21:47.283Z,50.876114
2023-02-15T10:22:47.291Z,50.876114
2023-02-15T10:23:47.244Z,50.876114
2023-02-15T10:24:48.913Z,50.876114
2023-02-15T10:25:48.281Z,50.876114
2023-02-15T10:26:47.390Z,50.876114
2023-02-15T10:27:47.404Z,50.876114
2023-02-15T10:28:47.333Z,50.876114
2023-02-15T10:29:47.395Z,50.876114
2023-02-15T10:30:47.349Z,50.876114
2023-02-15T10:31:47.329Z,50.876114
2023-02-15T10:32:48.656Z,50.876114
2023-02-15T10:35:57.076Z,50.876114
2023-02-15T10:35:58.787Z,50.876114
2023-02-15T10:36:58.642Z,50.876114
2023-02-15T10:37:58.787Z,50.876114
2023-02-15T10:38:58.583Z,50.876114
2023-02-15T10:39:58.629Z,50.876114
2023-02-15T10:40:59.949Z,50.876114
2023-02-15T10:42:04.597Z,50.876114
2023-02-15T10:42:59.617Z,50.876114
2023-02-15T10:43:58.620Z,50.876114
2023-02-15T10:44:59.703Z,50.876114
2023-02-15T10:45:58.565Z,50.876114
2023-02-15T10:46:58.544Z,50.876114
2023-02-15T10:47:58.523Z,50.876114
2023-02-15T10:48:58.659Z,50.876114
2023-02-15T12:57:31.221Z,50.875416
2023-02-15T12:58:31.271Z,50.875385
2023-02-15T12:59:31.169Z,50.875412
2023-02-15T13:00:31.222Z,50.875374
2023-02-15T13:01:31.206Z,50.875355
2023-02-15T13:02:31.230Z,50.875278
2023-02-15T13:03:31.148Z,50.875320
2023-02-15T13:04:31.192Z,50.875393
2023-02-15T13:05:31.202Z,50.875298
2023-02-15T13:06:31.189Z,50.875336
2023-02-15T13:07:31.177Z,50.875332
2023-02-15T13:08:31.161Z,50.875263
2023-02-15T13:09:31.117Z,50.875301
2023-02-15T13:10:31.075Z,50.875301
2023-02-15T13:11:31.400Z,50.875301
2023-02-15T13:12:32.051Z,50.875301
2023-02-15T13:13:31.064Z,50.875301
2023-02-15T13:14:31.066Z,50.922512
2023-02-15T13:15:31.078Z,50.922512
2023-02-15T13:16:31.046Z,50.922512
2023-02-15T13:17:30.962Z,50.875351
2023-02-15T13:18:31.002Z,50.875568
2023-02-15T13:19:30.987Z,50.875473
2023-02-15T13:20:30.947Z,50.875484
2023-02-15T13:21:30.991Z,50.875484
2023-02-15T13:22:30.936Z,50.875587
2023-02-15T13:23:30.950Z,50.875458
2023-02-15T13:24:30.911Z,50.875458
2023-02-15T13:25:31.977Z,50.875458
2023-02-15T13:26:31.071Z,50.875381
2023-02-15T13:27:31.210Z,50.875423
2023-02-15T13:28:31.309Z,50.875431
